createdAt,value
2019-01-20T00:00:19.283Z,21.00
2019-01-20T00:03:26.512Z,20.90
2019-01-20T00:06:32.173Z,20.90
2019-01-20T00:09:37.854Z,20.80
2019-01-20T00:12:43.482Z,20.80
2019-01-20T00:15:49.354Z,20.80
2019-01-20T00:18:55.013Z,20.70
2019-01-20T00:22:00.647Z,20.70
2019-01-20T00:25:07.365Z,20.60
2019-01-20T00:28:13.001Z,20.60
2019-01-20T00:31:18.726Z,20.60
2019-01-20T00:34:24.378Z,20.60
2019-01-20T00:37:30.054Z,20.60
2019-01-20T00:40:37.223Z,20.60
2019-01-20T00:43:42.894Z,20.60
2019-01-20T00:46:48.554Z,20.50
2019-01-20T00:49:54.178Z,20.50
2019-01-20T00:52:59.857Z,20.50
2019-01-20T00:56:05.890Z,20.50
2019-01-20T00:59:11.678Z,20.40
2019-01-20T01:02:17.419Z,20.40
2019-01-20T01:05:23.605Z,20.40
2019-01-20T01:08:29.319Z,20.30
2019-01-20T01:11:35.002Z,20.30
2019-01-20T01:14:40.650Z,20.30
2019-01-20T01:17:46.389Z,20.20
2019-01-20T01:20:52.041Z,20.10
2019-01-20T01:23:57.787Z,20.00
2019-01-20T01:27:03.482Z,20.00
2019-01-20T01:30:13.306Z,20.00
2019-01-20T01:33:18.954Z,20.00
2019-01-20T01:36:24.787Z,20.00
2019-01-20T01:39:31.357Z,20.00
2019-01-20T01:42:38.103Z,20.00
2019-01-20T01:45:43.824Z,20.00
2019-01-20T01:48:49.494Z,20.00
2019-01-20T01:51:55.128Z,20.00
2019-01-20T01:55:02.484Z,20.00
2019-01-20T01:58:08.290Z,20.00
2019-01-20T02:01:14.044Z,20.00
2019-01-20T02:04:19.697Z,20.00
2019-01-20T02:07:25.405Z,20.10
2019-01-20T02:10:31.149Z,20.00
2019-01-20T02:13:36.758Z,19.90
2019-01-20T02:16:42.485Z,19.90
2019-01-20T02:19:48.086Z,19.90
2019-01-20T02:22:54.219Z,19.90
2019-01-20T02:25:59.901Z,19.90
2019-01-20T02:29:06.001Z,19.90
2019-01-20T02:32:11.618Z,19.90
2019-01-20T02:35:17.286Z,19.90
2019-01-20T02:38:22.922Z,19.90
2019-01-20T02:41:28.614Z,19.90
2019-01-20T02:44:34.330Z,19.90
2019-01-20T02:47:41.022Z,19.80
2019-01-20T02:50:46.657Z,19.80
2019-01-20T02:53:52.479Z,19.80
2019-01-20T02:56:58.170Z,19.80
2019-01-20T03:00:05.110Z,19.80
2019-01-20T03:03:10.782Z,19.80
2019-01-20T03:06:16.578Z,19.80
2019-01-20T03:09:22.214Z,19.70
2019-01-20T03:12:27.905Z,19.70
2019-01-20T03:15:33.497Z,19.70
2019-01-20T03:18:39.313Z,19.70
2019-01-20T03:21:44.825Z,19.70
2019-01-20T03:24:50.482Z,19.70
2019-01-20T03:27:56.110Z,19.70
2019-01-20T03:31:01.792Z,19.70
2019-01-20T03:34:07.543Z,19.60
2019-01-20T03:37:13.203Z,19.60
2019-01-20T03:40:20.101Z,19.60
2019-01-20T03:43:25.833Z,19.60
2019-01-20T03:46:32.516Z,19.60
2019-01-20T03:49:38.131Z,19.60
2019-01-20T03:52:43.809Z,19.60
2019-01-20T03:55:49.566Z,19.50
2019-01-20T03:58:55.221Z,19.50
2019-01-20T04:02:00.841Z,19.50
2019-01-20T04:05:07.102Z,19.50
2019-01-20T04:08:13.210Z,19.50
2019-01-20T04:11:20.083Z,19.50
2019-01-20T04:14:25.712Z,19.50
2019-01-20T04:17:31.390Z,19.50
2019-01-20T04:20:37.042Z,19.50
2019-01-20T04:23:42.665Z,19.50
2019-01-20T04:26:48.318Z,19.50
2019-01-20T04:29:53.999Z,19.50
2019-01-20T04:32:59.656Z,19.50
2019-01-20T04:36:06.018Z,19.50
2019-01-20T04:39:11.671Z,19.50
2019-01-20T04:42:17.326Z,19.50
2019-01-20T04:45:23.263Z,19.50
2019-01-20T04:48:28.933Z,19.50
2019-01-20T04:51:34.569Z,19.50
2019-01-20T04:54:40.217Z,19.50
2019-01-20T04:57:50.498Z,19.50
2019-01-20T05:00:56.157Z,19.50
2019-01-20T05:04:01.786Z,19.50
2019-01-20T05:07:07.535Z,19.50
2019-01-20T05:10:14.724Z,19.50
2019-01-20T05:13:20.401Z,19.50
2019-01-20T05:16:26.062Z,19.50
2019-01-20T05:19:31.682Z,19.50
2019-01-20T05:22:37.367Z,19.50
2019-01-20T05:25:43.019Z,19.50
2019-01-20T05:28:50.320Z,19.50
2019-01-20T05:31:55.932Z,19.50
2019-01-20T05:35:01.587Z,19.50
2019-01-20T05:38:07.268Z,19.50
2019-01-20T05:41:12.931Z,19.40
2019-01-20T05:44:18.578Z,19.50
2019-01-20T05:47:24.230Z,19.40
2019-01-20T05:50:29.848Z,19.40
2019-01-20T05:53:35.506Z,19.50
2019-01-20T05:56:41.218Z,19.40
2019-01-20T05:59:46.934Z,19.50
2019-01-20T06:02:52.606Z,19.50
2019-01-20T06:05:58.237Z,19.60
2019-01-20T06:09:05.321Z,19.70
2019-01-20T06:12:10.877Z,19.70
2019-01-20T06:15:18.078Z,19.80
2019-01-20T06:18:23.702Z,19.90
2019-01-20T06:21:29.390Z,20.00
2019-01-20T06:24:35.017Z,20.20
2019-01-20T06:27:40.721Z,20.30
2019-01-20T06:30:46.326Z,20.40
2019-01-20T06:33:51.991Z,20.50
2019-01-20T06:36:57.620Z,20.60
2019-01-20T06:40:03.319Z,20.70
2019-01-20T06:43:08.933Z,20.80
2019-01-20T06:46:14.603Z,20.90
2019-01-20T06:49:20.253Z,21.00
2019-01-20T06:52:25.929Z,21.10
2019-01-20T06:55:31.546Z,21.20
2019-01-20T06:58:37.242Z,21.20
2019-01-20T07:01:42.826Z,21.40
2019-01-20T07:04:48.552Z,21.50
2019-01-20T07:07:54.258Z,21.50
2019-01-20T07:10:59.954Z,21.60
2019-01-20T07:14:05.741Z,21.70
2019-01-20T07:17:11.410Z,21.70
2019-01-20T07:20:17.285Z,21.70
2019-01-20T07:23:22.938Z,21.70
2019-01-20T07:26:28.582Z,21.80
2019-01-20T07:29:34.218Z,21.80
2019-01-20T07:32:39.866Z,21.80
2019-01-20T07:35:45.549Z,21.90
2019-01-20T07:38:52.898Z,21.90
2019-01-20T07:41:58.559Z,21.90
2019-01-20T07:45:04.757Z,22.00
2019-01-20T07:48:12.154Z,22.00
2019-01-20T07:51:17.812Z,22.00
2019-01-20T07:54:23.433Z,22.10
2019-01-20T07:57:29.109Z,22.10
2019-01-20T08:00:34.770Z,22.20
2019-01-20T08:03:40.415Z,22.10
2019-01-20T08:06:46.066Z,22.10
2019-01-20T08:09:51.691Z,22.10
2019-01-20T08:12:57.688Z,22.00
2019-01-20T08:16:03.336Z,22.10
2019-01-20T08:19:08.991Z,22.10
2019-01-20T08:22:14.640Z,22.10
2019-01-20T08:25:39.315Z,22.10
2019-01-20T08:28:44.927Z,22.10
2019-01-20T08:31:50.582Z,22.10
2019-01-20T08:34:56.257Z,22.20
2019-01-20T08:38:01.920Z,22.20
2019-01-20T08:41:07.565Z,22.30
2019-01-20T08:44:14.418Z,22.30
2019-01-20T08:47:33.314Z,22.40
2019-01-20T08:50:38.834Z,22.40
2019-01-20T08:53:44.488Z,22.50
2019-01-20T08:56:50.171Z,22.50
2019-01-20T08:59:55.838Z,22.50
2019-01-20T09:03:01.443Z,22.60
2019-01-20T09:06:07.997Z,22.70
2019-01-20T09:09:15.398Z,22.70
2019-01-20T09:12:21.090Z,22.70
2019-01-20T09:15:26.851Z,22.80
2019-01-20T09:18:32.473Z,22.80
2019-01-20T09:21:38.162Z,22.90
2019-01-20T09:24:43.802Z,22.90
2019-01-20T09:27:49.457Z,22.90
2019-01-20T09:30:55.082Z,22.90
2019-01-20T09:34:00.733Z,23.00
2019-01-20T09:37:06.386Z,23.00
2019-01-20T09:40:13.058Z,23.00
2019-01-20T09:43:19.770Z,23.00
2019-01-20T09:46:27.125Z,23.00
2019-01-20T09:49:32.825Z,23.00
2019-01-20T09:52:38.441Z,23.00
2019-01-20T09:55:44.162Z,23.00
2019-01-20T09:58:49.777Z,23.00
2019-01-20T10:01:55.518Z,23.00
2019-01-20T10:05:01.183Z,23.00
2019-01-20T10:08:07.078Z,23.00
2019-01-20T10:11:12.694Z,23.00
2019-01-20T10:14:18.353Z,23.00
2019-01-20T10:17:23.970Z,23.00
2019-01-20T10:20:30.998Z,23.00
2019-01-20T10:23:36.633Z,23.10
2019-01-20T10:26:42.299Z,23.00
2019-01-20T10:29:47.912Z,23.10
2019-01-20T10:32:54.038Z,23.10
2019-01-20T10:36:03.082Z,23.10
2019-01-20T10:39:12.178Z,23.10
2019-01-20T10:42:17.925Z,23.10
2019-01-20T10:45:23.689Z,23.10
2019-01-20T10:48:29.337Z,23.10
2019-01-20T10:51:35.175Z,23.10
2019-01-20T10:54:40.810Z,23.10
2019-01-20T10:57:46.530Z,23.20
2019-01-20T11:00:52.149Z,23.10
2019-01-20T11:03:57.773Z,23.10
2019-01-20T11:07:03.467Z,23.10
2019-01-20T11:10:09.822Z,23.10
2019-01-20T11:13:15.470Z,23.10
2019-01-20T11:16:22.793Z,23.20
2019-01-20T11:19:28.394Z,23.20
2019-01-20T11:22:34.169Z,23.20
2019-01-20T11:25:41.848Z,23.20
2019-01-20T11:28:47.503Z,23.20
2019-01-20T11:31:53.185Z,23.20
2019-01-20T11:34:58.940Z,23.20
2019-01-20T11:38:04.862Z,23.30
2019-01-20T11:41:10.523Z,23.30
2019-01-20T11:44:17.094Z,23.30
2019-01-20T11:47:23.088Z,23.30
2019-01-20T11:50:28.775Z,23.30
2019-01-20T11:53:34.354Z,23.30
2019-01-20T11:56:40.043Z,23.30
2019-01-20T11:59:45.804Z,23.30
2019-01-20T12:02:51.424Z,23.30
2019-01-20T12:05:57.074Z,23.30
2019-01-20T12:09:02.733Z,23.30
2019-01-20T12:12:09.410Z,23.40
2019-01-20T12:15:15.628Z,23.30
2019-01-20T12:18:23.000Z,23.30
2019-01-20T12:21:28.642Z,23.30
2019-01-20T12:24:34.274Z,23.30
2019-01-20T12:27:39.914Z,23.20
2019-01-20T12:30:45.601Z,23.30
2019-01-20T12:33:51.251Z,23.30
2019-01-20T12:36:56.886Z,23.30
2019-01-20T12:40:02.566Z,23.20
2019-01-20T12:43:08.214Z,23.30
2019-01-20T12:46:13.762Z,23.30
2019-01-20T12:49:19.382Z,23.30
2019-01-20T12:52:25.038Z,23.30
2019-01-20T12:55:30.723Z,23.30
2019-01-20T12:58:36.376Z,23.30
2019-01-20T13:01:42.330Z,23.30
2019-01-20T13:04:47.978Z,23.30
2019-01-20T13:07:53.610Z,23.30
2019-01-20T13:10:59.271Z,23.30
2019-01-20T13:14:05.052Z,23.20
2019-01-20T13:17:10.694Z,23.20
2019-01-20T13:20:18.582Z,23.20
2019-01-20T13:23:24.357Z,23.20
2019-01-20T13:26:30.010Z,23.20
2019-01-20T13:29:35.648Z,23.30
2019-01-20T13:32:41.426Z,23.30
2019-01-20T13:35:47.067Z,23.30
2019-01-20T13:38:52.766Z,23.40
2019-01-20T13:41:58.414Z,23.30
2019-01-20T13:45:04.130Z,23.40
2019-01-20T13:48:11.421Z,23.40
2019-01-20T13:51:17.178Z,23.50
2019-01-20T13:54:22.909Z,23.40
2019-01-20T13:57:28.586Z,23.50
2019-01-20T14:00:35.238Z,23.50
2019-01-20T14:03:40.887Z,23.50
2019-01-20T14:06:46.606Z,23.50
2019-01-20T14:09:52.225Z,23.50
2019-01-20T14:12:57.906Z,23.50
2019-01-20T14:16:03.526Z,23.30
2019-01-20T14:19:09.218Z,23.30
2019-01-20T14:22:14.834Z,23.30
2019-01-20T14:25:22.331Z,23.30
2019-01-20T14:28:28.002Z,23.20
2019-01-20T14:31:33.690Z,23.20
2019-01-20T14:34:39.305Z,23.20
2019-01-20T14:37:45.094Z,23.20
2019-01-20T14:40:50.687Z,23.20
2019-01-20T14:43:56.386Z,23.10
2019-01-20T14:47:02.994Z,23.10
2019-01-20T14:50:11.766Z,23.10
2019-01-20T14:53:17.427Z,23.00
2019-01-20T14:56:23.542Z,23.00
2019-01-20T14:59:29.237Z,22.90
2019-01-20T15:02:34.935Z,22.90
2019-01-20T15:05:40.526Z,22.80
2019-01-20T15:08:46.194Z,22.70
2019-01-20T15:11:51.853Z,22.70
2019-01-20T15:14:57.611Z,22.60
2019-01-20T15:18:03.267Z,22.50
2019-01-20T15:21:08.882Z,22.50
2019-01-20T15:24:14.573Z,22.50
2019-01-20T15:27:20.218Z,22.40
2019-01-20T15:30:27.799Z,22.40
2019-01-20T15:33:33.442Z,22.30
2019-01-20T15:36:39.198Z,22.20
2019-01-20T15:39:44.882Z,22.10
2019-01-20T15:42:51.010Z,22.10
2019-01-20T15:45:56.797Z,22.10
2019-01-20T15:49:02.445Z,22.00
2019-01-20T15:52:09.918Z,22.00
2019-01-20T15:55:15.806Z,21.90
2019-01-20T15:58:21.454Z,21.90
2019-01-20T16:01:27.076Z,21.80
2019-01-20T16:04:32.725Z,21.80
2019-01-20T16:07:38.409Z,21.70
2019-01-20T16:10:44.169Z,21.70
2019-01-20T16:13:50.715Z,21.60
2019-01-20T16:16:56.369Z,21.60
2019-01-20T16:20:02.051Z,21.60
2019-01-20T16:23:09.339Z,21.50
2019-01-20T16:26:15.010Z,21.50
2019-01-20T16:29:20.661Z,21.50
2019-01-20T16:32:26.268Z,21.40
2019-01-20T16:35:33.531Z,21.30
2019-01-20T16:38:40.027Z,21.30
2019-01-20T16:41:45.714Z,21.30
2019-01-20T16:44:51.360Z,21.30
2019-01-20T16:47:57.086Z,21.20
2019-01-20T16:51:02.742Z,21.20
2019-01-20T16:54:08.433Z,21.20
2019-01-20T16:57:14.074Z,21.20
2019-01-20T17:00:22.471Z,21.10
2019-01-20T17:03:28.248Z,21.10
2019-01-20T17:06:33.906Z,21.10
2019-01-20T17:09:39.533Z,21.10
2019-01-20T17:12:45.182Z,21.00
2019-01-20T17:15:50.858Z,21.00
2019-01-20T17:18:56.513Z,21.00
2019-01-20T17:22:02.135Z,20.90
2019-01-20T17:25:08.611Z,20.90
2019-01-20T17:28:16.101Z,20.90
2019-01-20T17:31:21.766Z,20.80
2019-01-20T17:34:27.478Z,20.80
2019-01-20T17:37:33.099Z,20.80
2019-01-20T17:40:38.962Z,20.70
2019-01-20T17:43:44.601Z,20.80
2019-01-20T17:46:51.318Z,20.80
2019-01-20T17:49:58.058Z,20.80
2019-01-20T17:53:04.278Z,20.90
2019-01-20T17:56:10.486Z,21.00
2019-01-20T17:59:16.756Z,21.20
2019-01-20T18:02:23.442Z,21.30
2019-01-20T18:05:30.138Z,21.60
2019-01-20T18:08:37.198Z,21.70
2019-01-20T18:11:43.746Z,21.90
2019-01-20T18:14:49.888Z,22.10
2019-01-20T18:17:56.470Z,22.30
2019-01-20T18:21:02.928Z,22.40
2019-01-20T18:24:09.617Z,22.50
2019-01-20T18:27:15.879Z,22.60
2019-01-20T18:30:24.184Z,22.70
2019-01-20T18:33:30.210Z,22.80
2019-01-20T18:36:37.462Z,22.90
2019-01-20T18:39:44.160Z,22.90
2019-01-20T18:42:51.685Z,23.00
2019-01-20T18:46:01.874Z,23.10
2019-01-20T18:49:05.467Z,23.20
2019-01-20T18:52:11.182Z,23.20
2019-01-20T18:55:17.990Z,23.30
2019-01-20T18:58:25.048Z,23.30
2019-01-20T19:01:32.202Z,23.30
2019-01-20T19:04:38.845Z,23.30
2019-01-20T19:07:45.518Z,23.30
2019-01-20T19:10:53.462Z,23.30
2019-01-20T19:13:59.575Z,23.30
2019-01-20T19:17:06.243Z,23.30
2019-01-20T19:20:16.097Z,23.30
2019-01-20T19:23:23.477Z,23.20
2019-01-20T19:26:30.400Z,23.20
2019-01-20T19:29:37.114Z,23.20
2019-01-20T19:32:43.670Z,23.20
2019-01-20T19:35:49.917Z,23.20
2019-01-20T19:38:56.657Z,23.20
2019-01-20T19:42:03.156Z,23.30
2019-01-20T19:45:11.655Z,23.20
2019-01-20T19:48:20.240Z,23.30
2019-01-20T19:51:27.857Z,23.30
2019-01-20T19:54:34.566Z,23.20
2019-01-20T19:57:40.878Z,23.20
2019-01-20T20:00:48.151Z,23.30
2019-01-20T20:03:55.741Z,23.30
2019-01-20T20:07:02.470Z,23.30
2019-01-20T20:10:10.570Z,23.30
2019-01-20T20:13:17.153Z,23.30
2019-01-20T20:16:23.806Z,23.30
2019-01-20T20:19:32.168Z,23.30
2019-01-20T20:22:38.021Z,23.30
2019-01-20T20:25:43.645Z,23.30
2019-01-20T20:28:51.134Z,23.30
2019-01-20T20:31:57.198Z,23.30
2019-01-20T20:35:04.244Z,23.40
2019-01-20T20:38:10.906Z,23.30
2019-01-20T20:41:17.867Z,23.30
2019-01-20T20:44:24.420Z,23.30
2019-01-20T20:47:31.321Z,23.30
2019-01-20T20:50:37.949Z,23.30
2019-01-20T20:53:44.337Z,23.20
2019-01-20T20:56:50.223Z,23.20
2019-01-20T20:59:56.262Z,23.20
2019-01-20T21:03:04.596Z,23.20
2019-01-20T21:06:10.275Z,23.10
2019-01-20T21:09:16.505Z,23.10
2019-01-20T21:12:24.711Z,23.10
2019-01-20T21:15:30.501Z,23.00
2019-01-20T21:18:36.323Z,22.90
2019-01-20T21:21:43.004Z,22.90
2019-01-20T21:24:54.779Z,22.80
2019-01-20T21:28:00.799Z,22.80
2019-01-20T21:31:07.105Z,22.70
2019-01-20T21:34:13.514Z,22.60
2019-01-20T21:37:19.197Z,22.60
2019-01-20T21:40:25.884Z,22.50
2019-01-20T21:43:32.961Z,22.50
2019-01-20T21:46:45.244Z,22.40
2019-01-20T21:49:47.014Z,22.40
2019-01-20T21:52:53.125Z,22.30
2019-01-20T21:55:58.983Z,22.30
2019-01-20T21:59:04.963Z,22.20
2019-01-20T22:02:11.775Z,22.20
2019-01-20T22:05:18.340Z,22.10
2019-01-20T22:08:24.092Z,22.10
2019-01-20T22:11:29.782Z,22.00
2019-01-20T22:14:35.421Z,22.00
2019-01-20T22:17:41.219Z,22.00
2019-01-20T22:20:46.831Z,21.90
2019-01-20T22:23:53.937Z,21.90
2019-01-20T22:26:59.565Z,21.90
2019-01-20T22:30:07.474Z,21.80
2019-01-20T22:33:13.127Z,21.80
2019-01-20T22:36:18.813Z,21.80
2019-01-20T22:39:24.406Z,21.80
2019-01-20T22:42:30.087Z,21.70
2019-01-20T22:45:35.732Z,21.70
2019-01-20T22:48:41.566Z,21.60
2019-01-20T22:51:47.215Z,21.60
2019-01-20T22:54:52.871Z,21.60
2019-01-20T22:57:58.546Z,21.50
2019-01-20T23:01:11.434Z,21.50
2019-01-20T23:04:17.099Z,21.40
2019-01-20T23:07:22.760Z,21.30
2019-01-20T23:10:28.434Z,21.30
2019-01-20T23:13:34.096Z,21.20
2019-01-20T23:16:39.714Z,21.20
2019-01-20T23:19:45.362Z,21.10
2019-01-20T23:22:51.017Z,21.10
2019-01-20T23:25:56.697Z,21.10
2019-01-20T23:29:02.353Z,21.00
2019-01-20T23:32:07.973Z,21.00
2019-01-20T23:35:13.927Z,20.90
2019-01-20T23:38:19.588Z,20.90
2019-01-20T23:41:25.262Z,20.80
2019-01-20T23:44:30.920Z,20.80
2019-01-20T23:47:36.579Z,20.80
2019-01-20T23:50:42.198Z,20.80
2019-01-20T23:53:47.850Z,20.70
2019-01-20T23:56:53.531Z,20.70
2019-01-20T23:59:59.182Z,20.70
